Time;durP1;ratioP1;P1;durP2;ratioP2;P2;SDS_P1;SDS_P2;PMS_P1;PMS_P2;Temp;Humidity;BMP_temperature;BMP_pressure;BME280_temperature;BME280_humidity;BME280_pressure;Samples;Min_cycle;Max_cycle;Signal;HPM_P1;HPM_P2
2023/01/02 00:02:16;;;;;;;10.20;4.75;;;3.70;99.90;;;;;;5080536;28;20124;-29
2023/01/02 00:04:42;;;;;;;9.13;5.03;;;3.40;99.90;;;;;;5082359;28;20035;-35
2023/01/02 00:07:07;;;;;;;6.88;4.60;;;3.50;99.90;;;;;;5077496;28;20059;-33
2023/01/02 00:09:33;;;;;;;8.15;5.85;;;3.60;99.90;;;;;;5077499;28;20043;-33
2023/01/02 00:11:58;;;;;;;9.90;5.22;;;3.80;99.90;;;;;;5072477;28;20167;-33
2023/01/02 00:14:24;;;;;;;9.48;5.18;;;3.90;99.90;;;;;;5076622;28;20101;-33
2023/01/02 00:16:50;;;;;;;9.23;5.20;;;4.00;99.90;;;;;;5082471;28;20060;-38
2023/01/02 00:19:15;;;;;;;6.32;4.05;;;4.00;99.90;;;;;;5081651;28;20469;-38
2023/01/02 00:21:41;;;;;;;8.38;4.47;;;4.10;99.90;;;;;;5077001;28;20035;-34
2023/01/02 00:24:07;;;;;;;7.15;4.00;;;4.10;99.90;;;;;;5080726;28;20957;-33
2023/01/02 00:26:32;;;;;;;7.90;4.32;;;4.20;99.90;;;;;;5079152;28;20032;-34
2023/01/02 00:28:59;;;;;;;6.15;3.60;;;4.20;99.90;;;;;;5081568;28;20023;-34
2023/01/02 00:31:25;;;;;;;5.78;3.53;;;4.30;99.90;;;;;;5078324;28;20891;-38
2023/01/02 00:33:50;;;;;;;6.65;3.42;;;4.30;99.90;;;;;;5079878;28;20035;-38
2023/01/02 00:36:16;;;;;;;4.90;3.75;;;4.20;99.90;;;;;;5075689;28;20030;-34
2023/01/02 00:38:41;;;;;;;3.53;2.35;;;4.10;99.90;;;;;;5077448;28;20708;-33
2023/01/02 00:41:07;;;;;;;3.53;3.08;;;3.60;99.90;;;;;;5084422;28;20024;-37
2023/01/02 00:43:33;;;;;;;6.05;3.85;;;3.00;99.90;;;;;;5079744;28;20036;-38
2023/01/02 00:45:58;;;;;;;4.32;3.53;;;3.00;99.90;;;;;;5073410;28;20039;-35
2023/01/02 00:48:24;;;;;;;6.47;4.32;;;2.90;99.90;;;;;;5078094;28;20032;-38
2023/01/02 00:50:50;;;;;;;2.08;1.88;;;3.00;99.90;;;;;;5076031;28;20037;-38
2023/01/02 00:53:16;;;;;;;5.95;4.00;;;3.00;99.90;;;;;;5077276;28;20068;-37
2023/01/02 00:55:44;;;;;;;8.70;4.80;;;3.20;99.90;;;;;;5083428;28;20094;-35
2023/01/02 00:58:10;;;;;;;7.40;4.45;;;3.30;99.90;;;;;;5075045;28;20038;-38
2023/01/02 01:00:36;;;;;;;5.90;4.10;;;3.50;99.90;;;;;;5077740;28;20052;-38
2023/01/02 01:03:02;;;;;;;6.78;4.70;;;3.60;99.90;;;;;;5084877;28;20521;-31
2023/01/02 01:05:28;;;;;;;9.02;6.55;;;3.70;99.90;;;;;;5075366;28;20053;-35
2023/01/02 01:07:55;;;;;;;8.73;4.80;;;3.70;99.90;;;;;;5076194;28;20056;-32
2023/01/02 01:10:22;;;;;;;10.02;4.40;;;3.80;99.90;;;;;;5074654;28;20025;-30
2023/01/02 01:12:48;;;;;;;5.45;4.10;;;3.80;99.90;;;;;;5079326;28;20028;-34
2023/01/02 01:15:13;;;;;;;8.07;4.43;;;3.80;99.90;;;;;;5078683;28;20076;-37
2023/01/02 01:17:39;;;;;;;6.57;4.10;;;3.90;99.90;;;;;;5079185;28;20815;-37
2023/01/02 01:20:05;;;;;;;5.80;3.97;;;3.90;99.90;;;;;;5079003;28;20051;-32
2023/01/02 01:22:30;;;;;;;7.65;2.83;;;3.80;99.90;;;;;;5074577;28;20838;-36
2023/01/02 01:24:56;;;;;;;6.35;4.13;;;3.70;99.90;;;;;;5078306;28;20035;-37
2023/01/02 01:27:22;;;;;;;6.55;3.55;;;3.60;99.90;;;;;;5076875;28;20025;-31
2023/01/02 01:29:47;;;;;;;5.38;3.25;;;3.30;99.90;;;;;;5076518;28;20056;-38
2023/01/02 01:32:13;;;;;;;3.45;2.72;;;2.90;99.90;;;;;;5078458;28;20477;-36
2023/01/02 01:34:38;;;;;;;6.28;3.65;;;2.90;99.90;;;;;;5076110;28;20085;-38
2023/01/02 01:37:04;;;;;;;4.97;3.67;;;2.70;99.90;;;;;;5077813;28;20081;-36
2023/01/02 01:39:30;;;;;;;4.72;3.47;;;2.80;99.90;;;;;;5076465;28;20024;-34
2023/01/02 01:41:58;;;;;;;3.22;2.42;;;3.00;99.90;;;;;;5079150;28;20024;-36
2023/01/02 01:44:44;;;;;;;5.07;3.15;;;3.10;99.90;;;;;;5061512;28;20020;-36
2023/01/02 01:47:31;;;;;;;6.72;3.60;;;3.20;99.90;;;;;;5076685;28;20036;-38
2023/01/02 01:50:22;;;;;;;4.20;2.95;;;3.30;99.90;;;;;;5085142;28;20125;-37
2023/01/02 01:52:55;;;;;;;5.40;2.88;;;3.40;99.90;;;;;;5080837;28;20142;-38
2023/01/02 01:55:25;;;;;;;4.72;3.20;;;3.50;99.90;;;;;;5081805;28;20488;-33
2023/01/02 01:57:54;;;;;;;7.60;4.10;;;3.50;99.90;;;;;;5079803;28;20043;-38
2023/01/02 02:00:20;;;;;;;6.93;3.13;;;3.50;99.90;;;;;;5074923;28;20086;-34
2023/01/02 02:02:48;;;;;;;5.05;3.53;;;3.60;99.90;;;;;;5085068;28;20734;-36
2023/01/02 02:05:18;;;;;;;5.60;3.20;;;3.60;99.90;;;;;;5080175;28;20123;-37
2023/01/02 02:07:55;;;;;;;6.55;3.33;;;3.70;99.90;;;;;;5088801;28;20603;-38
2023/01/02 02:10:21;;;;;;;3.50;2.88;;;3.60;99.90;;;;;;5079384;28;20099;-34
2023/01/02 02:12:47;;;;;;;4.70;3.30;;;3.70;99.90;;;;;;5090879;28;20119;-37
2023/01/02 02:15:19;;;;;;;4.45;3.15;;;3.70;99.90;;;;;;5084992;28;20064;-28
2023/01/02 02:18:04;;;;;;;5.13;3.40;;;3.70;99.90;;;;;;5081844;28;20420;-38
2023/01/02 02:20:54;;;;;;;5.47;2.83;;;3.50;99.90;;;;;;5082972;28;20044;-30
2023/01/02 02:24:17;;;;;;;3.80;2.95;;;3.50;99.90;;;;;;5075083;28;20573;-30
2023/01/02 02:26:53;;;;;;;5.18;3.03;;;3.40;99.90;;;;;;5041871;28;20029;-35
2023/01/02 02:29:33;;;;;;;4.95;3.65;;;3.40;99.90;;;;;;5044626;28;20540;-35
2023/01/02 02:32:22;;;;;;;4.53;3.42;;;3.40;99.90;;;;;;5068049;28;20073;-37
2023/01/02 02:35:26;;;;;;;5.38;3.22;;;3.40;99.90;;;;;;5080760;28;20158;-34
2023/01/02 02:38:10;;;;;;;4.15;2.90;;;3.50;99.90;;;;;;5079906;28;20028;-33
2023/01/02 02:40:54;;;;;;;5.45;2.80;;;3.50;99.90;;;;;;5080769;28;20505;-31
2023/01/02 02:43:25;;;;;;;3.45;2.45;;;3.50;99.90;;;;;;5078885;28;20434;-35
2023/01/02 02:46:08;;;;;;;2.72;2.53;;;3.50;99.90;;;;;;5082553;28;20019;-35
2023/01/02 02:49:05;;;;;;;3.28;2.80;;;3.50;99.90;;;;;;5079982;28;20020;-33
2023/01/02 02:51:41;;;;;;;2.90;2.67;;;3.50;99.90;;;;;;5082029;28;20035;-33
2023/01/02 02:54:20;;;;;;;4.13;2.92;;;3.40;99.90;;;;;;5077470;28;20078;-34
2023/01/02 02:56:47;;;;;;;4.28;3.70;;;3.40;99.90;;;;;;5080897;28;20461;-36
2023/01/02 02:59:13;;;;;;;4.47;2.92;;;3.40;99.90;;;;;;5077757;28;20074;-35
2023/01/02 03:01:38;;;;;;;5.22;3.40;;;3.40;99.90;;;;;;5079084;28;20105;-37
2023/01/02 03:04:19;;;;;;;4.68;3.63;;;3.40;99.90;;;;;;5086034;28;20021;-38
2023/01/02 03:07:05;;;;;;;5.57;3.80;;;3.30;99.90;;;;;;5077369;28;20074;-38
2023/01/02 03:09:43;;;;;;;6.07;3.72;;;3.40;99.90;;;;;;5085170;28;20036;-34
2023/01/02 03:12:23;;;;;;;;;;;3.40;99.90;;;;;;5082435;28;20074;-34
2023/01/02 03:15:14;;;;;;;3.10;2.80;;;3.40;99.90;;;;;;5081095;28;19923;-36
2023/01/02 03:18:10;;;;;;;2.63;2.30;;;3.50;99.90;;;;;;5083048;28;20024;-38
2023/01/02 03:20:40;;;;;;;2.97;2.50;;;3.60;99.90;;;;;;5079096;28;20055;-36
2023/01/02 03:23:15;;;;;;;3.83;2.30;;;3.60;99.90;;;;;;5082958;28;20032;-35
2023/01/02 03:25:42;;;;;;;2.38;2.17;;;3.60;99.90;;;;;;5079449;28;20103;-34
2023/01/02 03:28:09;;;;;;;4.15;2.72;;;3.60;99.90;;;;;;5077112;28;20026;-36
2023/01/02 03:30:38;;;;;;;5.10;2.53;;;3.60;99.90;;;;;;5077375;28;20078;-38
2023/01/02 03:33:12;;;;;;;3.15;2.63;;;3.50;99.90;;;;;;5080622;27;20024;-34
2023/01/02 03:35:44;;;;;;;2.67;2.47;;;3.50;99.90;;;;;;5079005;28;20039;-35
2023/01/02 03:38:15;;;;;;;2.47;2.28;;;3.30;99.90;;;;;;5080578;28;20477;-35
2023/01/02 03:40:47;;;;;;;3.95;2.55;;;3.30;99.90;;;;;;5080933;28;20028;-36
2023/01/02 03:43:40;;;;;;;4.47;2.83;;;3.30;99.90;;;;;;5081677;28;20025;-35
2023/01/02 03:46:17;;;;;;;2.15;1.70;;;3.30;99.90;;;;;;5076563;28;20040;-37
2023/01/02 03:48:50;;;;;;;3.97;2.60;;;3.30;99.90;;;;;;5075594;28;20051;-27
2023/01/02 03:51:16;;;;;;;4.22;2.20;;;3.30;99.90;;;;;;5078343;28;20032;-33
2023/01/02 03:53:43;;;;;;;2.40;2.20;;;3.30;99.90;;;;;;5081668;28;21596;-31
2023/01/02 03:56:44;;;;;;;4.35;2.92;;;3.30;99.90;;;;;;5080377;28;20552;-34
2023/01/02 03:59:46;;;;;;;5.63;2.50;;;3.30;99.90;;;;;;5025756;28;20585;-31
2023/01/02 04:02:20;;;;;;;4.50;2.50;;;3.40;99.90;;;;;;5072835;28;20429;-37
2023/01/02 04:04:55;;;;;;;2.28;2.00;;;3.40;99.90;;;;;;5080385;28;20024;-37
2023/01/02 04:07:46;;;;;;;4.90;2.38;;;3.40;99.90;;;;;;5079659;28;20067;-30
2023/01/02 04:10:14;;;;;;;3.95;2.20;;;3.40;99.90;;;;;;5079379;28;20114;-32
2023/01/02 04:12:42;;;;;;;2.38;2.17;;;3.40;99.90;;;;;;5078740;28;20043;-38
2023/01/02 04:15:11;;;;;;;3.15;2.28;;;3.20;99.90;;;;;;5080708;28;20040;-32
2023/01/02 04:17:53;;;;;;;3.13;2.65;;;3.20;99.90;;;;;;5078360;28;21860;-38
2023/01/02 04:20:33;;;;;;;2.90;2.17;;;3.10;99.90;;;;;;5078035;28;20150;-33
2023/01/02 04:23:15;;;;;;;4.30;2.67;;;3.00;99.90;;;;;;5076840;28;20032;-37
2023/01/02 04:26:07;;;;;;;4.00;2.72;;;3.00;99.90;;;;;;5081387;28;20111;-37
2023/01/02 04:28:34;;;;;;;3.97;2.53;;;2.90;99.90;;;;;;5067175;28;20040;-33
2023/01/02 04:31:06;;;;;;;2.78;2.50;;;2.80;99.90;;;;;;5081909;28;20028;-37
2023/01/02 04:33:37;;;;;;;4.25;2.70;;;2.80;99.90;;;;;;5077240;28;20024;-36
2023/01/02 04:36:09;;;;;;;1.42;1.42;;;2.70;99.90;;;;;;5084450;28;20035;-36
2023/01/02 04:38:36;;;;;;;4.15;2.85;;;2.60;99.90;;;;;;5077064;28;20090;-37
2023/01/02 04:41:03;;;;;;;5.05;2.47;;;2.70;99.90;;;;;;5080787;28;20043;-33
2023/01/02 04:43:29;;;;;;;3.38;2.30;;;2.80;99.90;;;;;;5080534;28;20468;-38
2023/01/02 04:45:55;;;;;;;2.60;2.35;;;2.60;99.90;;;;;;5083542;28;20419;-33
2023/01/02 04:48:20;;;;;;;4.45;2.55;;;2.40;99.90;;;;;;5078555;28;20704;-37
2023/01/02 04:50:47;;;;;;;5.93;2.63;;;2.50;99.90;;;;;;5078457;28;20040;-31
2023/01/02 04:53:13;;;;;;;3.47;2.90;;;2.60;99.90;;;;;;5080289;28;20110;-30
2023/01/02 04:55:39;;;;;;;2.63;2.40;;;2.60;99.90;;;;;;5077454;28;20027;-33
2023/01/02 04:58:06;;;;;;;2.70;2.30;;;2.70;99.90;;;;;;5076557;28;20024;-37
2023/01/02 05:00:32;;;;;;;6.07;2.92;;;2.70;99.90;;;;;;5080219;28;20063;-31
2023/01/02 05:02:57;;;;;;;3.00;2.72;;;2.80;99.90;;;;;;5085117;28;20077;-36
2023/01/02 05:05:23;;;;;;;3.92;3.08;;;2.80;99.90;;;;;;5072507;28;20392;-38
2023/01/02 05:07:49;;;;;;;5.88;2.78;;;2.90;99.90;;;;;;5074704;28;20482;-37
2023/01/02 05:10:14;;;;;;;2.90;2.50;;;2.90;99.90;;;;;;5078396;28;20031;-37
2023/01/02 05:12:40;;;;;;;5.70;2.78;;;2.90;99.90;;;;;;5077736;28;20029;-35
2023/01/02 05:15:08;;;;;;;3.45;2.60;;;2.80;99.90;;;;;;5080205;28;20069;-37
2023/01/02 05:17:38;;;;;;;4.50;2.97;;;2.80;99.90;;;;;;5081661;28;20028;-37
2023/01/02 05:20:06;;;;;;;3.03;2.67;;;2.90;99.90;;;;;;5082114;28;20071;-31
2023/01/02 05:25:16;;;;;;;3.22;2.50;;;2.80;99.90;;;;;;5084577;28;20044;-38
2023/01/02 05:27:41;;;;;;;4.00;2.17;;;2.80;99.90;;;;;;5082636;27;20040;-31
2023/01/02 05:30:08;;;;;;;2.80;2.60;;;2.80;99.90;;;;;;5080980;28;20627;-33
2023/01/02 05:32:33;;;;;;;4.03;2.50;;;2.90;99.90;;;;;;5085501;28;21658;-35
2023/01/02 05:34:59;;;;;;;2.33;1.80;;;2.90;99.90;;;;;;5079520;28;20029;-34
2023/01/02 05:37:25;;;;;;;2.72;1.90;;;3.00;99.90;;;;;;5086539;28;20027;-37
2023/01/02 05:39:50;;;;;;;2.42;1.85;;;3.00;99.90;;;;;;5080311;28;20455;-36
2023/01/02 05:42:16;;;;;;;2.60;2.08;;;3.00;99.90;;;;;;5083614;28;20036;-34
2023/01/02 05:44:42;;;;;;;2.88;2.15;;;2.90;99.90;;;;;;5084290;28;20115;-31
2023/01/02 05:47:07;;;;;;;3.25;2.17;;;2.90;99.90;;;;;;5083080;28;20029;-37
2023/01/02 05:49:33;;;;;;;7.13;2.97;;;3.00;99.90;;;;;;5085213;28;20038;-32
2023/01/02 05:51:58;;;;;;;4.78;2.85;;;2.90;99.90;;;;;;5082755;28;20043;-38
2023/01/02 05:54:24;;;;;;;5.07;2.67;;;2.80;99.90;;;;;;5088482;28;20031;-37
2023/01/02 05:56:49;;;;;;;3.47;2.88;;;2.80;99.90;;;;;;5079703;28;20024;-37
2023/01/02 05:59:15;;;;;;;3.03;2.70;;;2.80;99.90;;;;;;5085312;28;20078;-37
2023/01/02 06:01:41;;;;;;;7.47;2.70;;;2.70;99.90;;;;;;5084724;28;20060;-27
2023/01/02 06:04:06;;;;;;;4.72;2.67;;;2.70;99.90;;;;;;5079765;28;20063;-34
2023/01/02 06:06:35;;;;;;;3.58;2.53;;;2.70;99.90;;;;;;5074034;28;20055;-33
2023/01/02 06:09:01;;;;;;;2.72;2.45;;;2.70;99.90;;;;;;5081429;28;20026;-29
2023/01/02 06:11:28;;;;;;;3.88;2.72;;;2.70;99.90;;;;;;5080301;28;20639;-29
2023/01/02 06:13:54;;;;;;;2.92;2.55;;;2.70;99.90;;;;;;5080291;28;20075;-38
2023/01/02 06:16:20;;;;;;;3.92;2.70;;;2.70;99.90;;;;;;5083780;28;20135;-38
2023/01/02 06:18:47;;;;;;;4.93;2.63;;;2.80;99.90;;;;;;5076926;28;20495;-36
2023/01/02 06:21:15;;;;;;;2.13;1.67;;;2.80;99.90;;;;;;5081030;28;20036;-32
2023/01/02 06:23:41;;;;;;;4.70;2.38;;;2.70;99.90;;;;;;5084446;28;20019;-37
2023/01/02 06:26:08;;;;;;;1.83;1.63;;;2.70;99.90;;;;;;5078566;28;20027;-35
2023/01/02 06:28:34;;;;;;;2.70;1.95;;;2.60;99.90;;;;;;5081150;28;20032;-33
2023/01/02 06:31:04;;;;;;;3.33;2.30;;;2.70;99.90;;;;;;5084383;28;20043;-35
2023/01/02 06:33:30;;;;;;;2.67;2.28;;;2.70;99.90;;;;;;5080217;28;20134;-36
2023/01/02 06:36:01;;;;;;;4.80;2.22;;;2.70;99.90;;;;;;5082532;28;20112;-37
2023/01/02 06:38:27;;;;;;;2.60;2.10;;;2.70;99.90;;;;;;5081419;28;20488;-36
2023/01/02 06:40:55;;;;;;;6.45;2.70;;;2.70;99.90;;;;;;5078435;28;20437;-37
2023/01/02 06:43:21;;;;;;;3.75;2.78;;;2.70;99.90;;;;;;5073993;28;20051;-36
2023/01/02 06:45:47;;;;;;;1.77;1.55;;;2.80;99.90;;;;;;5078339;28;20580;-37
2023/01/02 06:48:12;;;;;;;5.97;2.45;;;2.80;99.90;;;;;;5080008;28;20021;-33
2023/01/02 06:50:38;;;;;;;1.90;1.80;;;2.80;99.90;;;;;;5074601;28;20097;-36
2023/01/02 06:53:04;;;;;;;7.93;2.10;;;2.60;99.90;;;;;;5080071;28;20024;-38
2023/01/02 06:55:29;;;;;;;2.53;2.05;;;2.60;99.90;;;;;;5084220;28;20481;-37
2023/01/02 06:57:55;;;;;;;5.18;2.25;;;2.60;99.90;;;;;;5081606;28;20025;-37
2023/01/02 07:00:20;;;;;;;2.28;1.98;;;2.60;99.90;;;;;;5084256;28;20394;-33
2023/01/02 07:02:46;;;;;;;4.50;2.40;;;2.70;99.90;;;;;;5081098;28;20039;-38
2023/01/02 07:05:12;;;;;;;5.32;2.05;;;2.60;99.90;;;;;;5081678;28;20020;-37
2023/01/02 07:07:37;;;;;;;3.83;2.58;;;2.70;99.90;;;;;;5077984;28;20033;-37
2023/01/02 07:10:04;;;;;;;5.65;2.65;;;2.70;99.90;;;;;;5082063;28;20552;-36
2023/01/02 07:12:29;;;;;;;3.85;3.03;;;2.70;99.90;;;;;;5080730;28;20486;-32
2023/01/02 07:14:55;;;;;;;3.92;2.30;;;2.70;99.90;;;;;;5084914;28;20040;-31
2023/01/02 07:17:20;;;;;;;4.03;2.05;;;2.80;99.90;;;;;;5079812;28;20031;-38
2023/01/02 07:19:46;;;;;;;7.40;2.33;;;2.50;99.90;;;;;;5079141;28;20359;-34
2023/01/02 07:22:12;;;;;;;4.18;2.88;;;2.40;99.90;;;;;;5077732;28;20087;-37
2023/01/02 07:24:37;;;;;;;3.15;2.25;;;2.30;99.90;;;;;;5083889;28;20031;-37
2023/01/02 07:27:03;;;;;;;5.72;2.72;;;2.20;99.90;;;;;;5077651;28;20111;-37
2023/01/02 07:29:29;;;;;;;4.10;2.75;;;2.20;99.90;;;;;;5076756;28;20118;-36
2023/01/02 07:31:54;;;;;;;2.35;2.15;;;2.30;99.90;;;;;;5075407;28;20402;-38
2023/01/02 07:34:20;;;;;;;2.95;2.20;;;2.40;99.90;;;;;;5084899;28;20029;-37
2023/01/02 07:36:46;;;;;;;4.03;2.15;;;2.50;99.90;;;;;;5073436;28;20478;-35
2023/01/02 07:39:11;;;;;;;2.45;2.25;;;2.60;99.90;;;;;;5086951;28;20106;-37
2023/01/02 07:41:37;;;;;;;2.22;2.03;;;2.70;99.90;;;;;;5083524;28;20020;-37
2023/01/02 07:44:02;;;;;;;2.58;2.30;;;2.70;99.90;;;;;;5085903;28;20024;-36
2023/01/02 07:46:28;;;;;;;3.42;2.63;;;2.80;99.90;;;;;;5073661;28;20023;-32
2023/01/02 07:48:54;;;;;;;3.42;2.80;;;2.80;99.90;;;;;;5081523;28;20024;-38
2023/01/02 07:51:19;;;;;;;3.53;2.35;;;2.80;99.90;;;;;;5075784;28;20051;-36
2023/01/02 07:53:45;;;;;;;3.42;2.40;;;2.70;99.90;;;;;;5078529;28;20061;-38
2023/01/02 07:56:10;;;;;;;4.50;2.70;;;2.70;99.90;;;;;;5073692;28;20501;-32
2023/01/02 07:58:36;;;;;;;2.70;2.45;;;2.80;99.90;;;;;;5073793;28;20032;-37
2023/01/02 08:01:11;;;;;;;3.22;2.38;;;2.90;99.90;;;;;;5079543;28;20115;-37
2023/01/02 08:03:38;;;;;;;4.53;2.47;;;3.00;99.90;;;;;;5078490;28;20135;-33
2023/01/02 08:06:12;;;;;;;4.53;2.40;;;3.00;99.90;;;;;;5079119;28;20487;-33
2023/01/02 08:08:38;;;;;;;2.25;2.05;;;3.00;99.90;;;;;;5076697;28;20388;-36
2023/01/02 08:11:06;;;;;;;3.25;2.70;;;3.00;99.90;;;;;;5076656;28;20089;-37
2023/01/02 08:13:31;;;;;;;3.85;2.50;;;3.10;99.90;;;;;;5076183;28;20076;-34
2023/01/02 08:15:57;;;;;;;3.60;2.75;;;3.20;99.90;;;;;;5073989;28;20039;-38
2023/01/02 08:18:22;;;;;;;3.92;3.28;;;3.20;99.90;;;;;;5077209;28;20098;-33
2023/01/02 08:20:48;;;;;;;4.40;2.92;;;3.30;99.90;;;;;;5081327;28;20488;-38
2023/01/02 08:23:14;;;;;;;8.82;3.50;;;3.40;99.90;;;;;;5078199;28;20016;-33
2023/01/02 08:25:39;;;;;;;6.90;3.50;;;3.50;99.90;;;;;;5074339;28;20031;-30
2023/01/02 08:28:05;;;;;;;6.40;3.55;;;3.50;99.90;;;;;;5076784;28;20032;-37
2023/01/02 08:30:30;;;;;;;4.60;2.80;;;3.70;99.90;;;;;;5079582;28;20036;-36
2023/01/02 08:32:56;;;;;;;3.40;2.58;;;3.80;99.90;;;;;;5077131;28;21090;-38
2023/01/02 08:35:22;;;;;;;3.42;2.42;;;3.90;99.90;;;;;;5074943;28;20113;-32
2023/01/02 08:37:47;;;;;;;4.63;3.10;;;4.00;99.90;;;;;;5076075;28;20032;-38
2023/01/02 08:40:13;;;;;;;7.50;3.58;;;4.10;99.90;;;;;;5083642;28;20028;-36
2023/01/02 08:42:41;;;;;;;3.42;2.97;;;4.20;99.90;;;;;;5071826;28;20544;-36
2023/01/02 08:45:07;;;;;;;3.28;2.90;;;4.40;99.90;;;;;;5081713;28;20021;-37
2023/01/02 08:47:33;;;;;;;3.97;3.00;;;4.70;99.90;;;;;;5076959;28;20055;-36
2023/01/02 08:49:58;;;;;;;3.85;2.95;;;4.80;99.90;;;;;;5071980;28;20048;-37
2023/01/02 08:52:24;;;;;;;4.10;2.65;;;5.00;99.90;;;;;;5072719;28;20101;-30
2023/01/02 08:54:50;;;;;;;4.38;3.03;;;5.30;99.90;;;;;;5073555;28;20032;-35
2023/01/02 08:57:15;;;;;;;4.00;2.35;;;5.40;99.90;;;;;;5072595;28;20031;-37
2023/01/02 08:59:41;;;;;;;3.63;3.22;;;5.70;99.90;;;;;;5079000;28;20071;-37
2023/01/02 09:02:10;;;;;;;4.68;2.15;;;6.00;99.90;;;;;;5074083;28;20032;-34
2023/01/02 09:04:36;;;;;;;3.17;2.88;;;6.20;99.90;;;;;;5072534;28;20493;-37
2023/01/02 09:07:02;;;;;;;4.50;3.33;;;6.30;99.90;;;;;;5074243;28;20020;-32
2023/01/02 09:09:27;;;;;;;4.07;3.10;;;6.40;99.90;;;;;;5072966;28;20025;-36
2023/01/02 09:11:53;;;;;;;5.68;2.92;;;6.70;99.90;;;;;;5074975;28;20656;-37
2023/01/02 09:14:20;;;;;;;5.80;2.92;;;6.80;99.90;;;;;;5075315;28;20060;-33
2023/01/02 09:16:47;;;;;;;5.90;3.40;;;7.00;99.90;;;;;;5076701;28;20032;-37
2023/01/02 09:19:16;;;;;;;4.63;3.28;;;7.00;99.90;;;;;;5072774;28;20441;-36
2023/01/02 09:21:42;;;;;;;7.18;2.90;;;7.10;99.90;;;;;;5079856;28;20055;-35
2023/01/02 09:24:08;;;;;;;3.95;2.90;;;7.10;99.90;;;;;;5074855;28;20106;-34
2023/01/02 09:26:36;;;;;;;5.10;2.90;;;7.20;99.90;;;;;;5072557;28;20044;-32
2023/01/02 09:29:03;;;;;;;2.70;2.28;;;7.40;99.90;;;;;;5074738;28;20024;-26
2023/01/02 09:31:28;;;;;;;3.30;2.00;;;7.60;99.90;;;;;;5067551;28;20445;-33
2023/01/02 09:33:54;;;;;;;3.63;2.70;;;7.90;99.90;;;;;;5058323;28;20032;-33
2023/01/02 09:36:20;;;;;;;2.17;1.48;;;7.90;99.90;;;;;;5060577;28;20516;-35
2023/01/02 09:38:51;;;;;;;2.33;2.00;;;8.40;99.90;;;;;;5064521;28;20247;-37
2023/01/02 09:41:35;;;;;;;3.45;1.92;;;8.50;99.90;;;;;;5057685;28;20496;-35
2023/01/02 09:44:06;;;;;;;2.33;1.52;;;8.60;99.90;;;;;;5060747;28;20033;-31
2023/01/02 09:46:57;;;;;;;2.08;1.88;;;8.80;99.90;;;;;;5055909;28;20032;-27
2023/01/02 09:49:45;;;;;;;2.78;2.28;;;9.10;99.90;;;;;;5062545;28;20394;-32
2023/01/02 09:52:19;;;;;;;3.20;1.90;;;9.40;99.90;;;;;;5074682;28;20048;-37
2023/01/02 09:54:44;;;;;;;3.55;2.60;;;9.30;99.90;;;;;;5058100;28;20055;-31
2023/01/02 09:57:25;;;;;;;4.63;2.53;;;9.30;99.90;;;;;;5057084;28;20460;-31
2023/01/02 10:00:08;;;;;;;3.38;2.35;;;9.30;99.90;;;;;;5058314;28;20140;-37
2023/01/02 10:02:36;;;;;;;2.75;2.20;;;9.40;99.90;;;;;;5049586;28;20036;-38
2023/01/02 10:05:22;;;;;;;5.30;2.50;;;9.50;99.90;;;;;;5054922;28;20024;-34
2023/01/02 10:08:20;;;;;;;3.33;2.08;;;9.70;99.90;;;;;;5053961;28;20092;-37
2023/01/02 10:10:54;;;;;;;4.05;1.90;;;9.90;99.90;;;;;;5053885;28;20200;-37
2023/01/02 10:13:46;;;;;;;2.25;2.05;;;10.10;99.90;;;;;;5055721;28;20063;-38
2023/01/02 10:16:20;;;;;;;3.28;2.00;;;10.30;99.90;;;;;;5057668;28;20072;-31
2023/01/02 10:18:50;;;;;;;3.00;1.73;;;10.40;99.90;;;;;;5059012;28;20071;-37
2023/01/02 10:21:23;;;;;;;5.13;2.00;;;10.40;99.90;;;;;;5062394;28;20120;-36
2023/01/02 10:23:55;;;;;;;4.50;2.00;;;10.40;99.90;;;;;;5061442;28;20033;-37
2023/01/02 10:26:27;;;;;;;3.47;1.70;;;10.50;99.90;;;;;;5057275;28;20482;-35
2023/01/02 10:29:17;;;;;;;3.35;2.40;;;10.50;99.90;;;;;;5057670;28;20085;-37
2023/01/02 10:31:51;;;;;;;2.50;2.00;;;10.70;99.90;;;;;;5055187;28;20040;-36
2023/01/02 10:34:20;;;;;;;4.47;2.55;;;10.90;99.90;;;;;;5055097;28;20032;-38
2023/01/02 10:36:47;;;;;;;5.00;2.70;;;11.00;99.90;;;;;;5081757;28;20119;-37
2023/01/02 10:39:14;;;;;;;4.43;2.05;;;11.20;99.90;;;;;;5062204;28;20379;-35
2023/01/02 10:41:41;;;;;;;3.80;2.20;;;11.30;99.90;;;;;;5059311;28;20664;-37
2023/01/02 10:44:15;;;;;;;8.07;3.15;;;11.40;99.90;;;;;;5068951;28;20054;-37
2023/01/02 10:46:41;;;;;;;2.60;2.15;;;11.50;99.90;;;;;;5058283;28;20037;-37
2023/01/02 10:49:08;;;;;;;2.03;1.70;;;11.70;99.90;;;;;;5062189;28;20042;-36
2023/01/02 10:51:37;;;;;;;2.95;1.77;;;11.90;99.90;;;;;;5059084;28;20036;-36
2023/01/02 10:54:07;;;;;;;2.35;1.77;;;11.90;99.90;;;;;;5064865;28;20040;-32
2023/01/02 10:56:38;;;;;;;4.20;1.70;;;12.00;99.90;;;;;;5063356;28;20036;-34
2023/01/02 10:59:20;;;;;;;3.53;1.92;;;12.00;99.90;;;;;;5058864;28;20065;-37
2023/01/02 11:01:52;;;;;;;3.17;1.92;;;12.10;99.90;;;;;;5065110;28;20032;-28
2023/01/02 11:04:26;;;;;;;3.35;2.10;;;12.20;99.90;;;;;;5062870;28;20477;-35
2023/01/02 11:06:54;;;;;;;4.25;2.00;;;12.20;99.90;;;;;;5056962;28;20862;-37
2023/01/02 11:09:24;;;;;;;3.33;1.95;;;12.20;99.90;;;;;;5051602;28;20033;-37
2023/01/02 11:11:53;;;;;;;2.72;1.80;;;12.40;99.90;;;;;;5061452;28;20081;-37
2023/01/02 11:14:31;;;;;;;3.67;1.88;;;12.30;99.90;;;;;;5058975;28;20101;-35
2023/01/02 11:17:01;;;;;;;;;;;12.40;99.90;;;;;;5058720;28;20123;-31
2023/01/02 11:19:27;;;;;;;3.28;1.90;;;12.30;99.90;;;;;;5059219;28;19916;-37
2023/01/02 11:21:53;;;;;;;4.25;1.98;;;12.30;99.90;;;;;;5059030;28;20040;-36
2023/01/02 11:24:24;;;;;;;2.55;1.92;;;12.40;99.90;;;;;;5058237;28;20020;-33
2023/01/02 11:26:50;;;;;;;6.82;2.17;;;12.40;99.90;;;;;;5053181;28;20032;-36
2023/01/02 11:29:30;;;;;;;3.47;1.98;;;12.30;99.90;;;;;;5056332;28;20095;-37
2023/01/02 11:31:58;;;;;;;2.40;1.73;;;12.40;99.90;;;;;;5060399;28;20029;-35
2023/01/02 11:34:37;;;;;;;1.95;1.60;;;12.30;99.90;;;;;;5050225;28;20051;-34
2023/01/02 11:37:13;;;;;;;3.88;1.77;;;12.40;99.90;;;;;;5051938;28;20034;-26
2023/01/02 11:39:40;;;;;;;3.83;1.88;;;12.60;99.90;;;;;;5055495;28;20039;-33
2023/01/02 11:45:08;;;;;;;2.38;1.52;;;12.60;99.90;;;;;;5061646;28;20539;-28
2023/01/02 11:47:43;;;;;;;2.38;1.70;;;12.60;99.90;;;;;;5053612;28;20156;-31
2023/01/02 11:50:31;;;;;;;3.97;2.50;;;12.70;99.90;;;;;;5058951;28;20066;-30
2023/01/02 11:53:10;;;;;;;4.20;1.70;;;12.80;98.90;;;;;;5060595;28;20139;-29
2023/01/02 11:55:52;;;;;;;2.50;1.90;;;12.80;99.90;;;;;;5054356;28;20035;-37
2023/01/02 11:58:33;;;;;;;4.28;1.88;;;12.80;99.70;;;;;;5058747;28;20020;-43
2023/01/02 12:01:33;;;;;;;1.55;1.45;;;12.80;99.80;;;;;;5057489;28;20036;-37
2023/01/02 12:03:59;;;;;;;4.10;1.55;;;12.80;99.90;;;;;;5063106;28;20103;-33
2023/01/02 12:06:57;;;;;;;3.88;1.63;;;12.80;98.30;;;;;;5053474;28;20043;-36
2023/01/02 12:09:28;;;;;;;6.15;5.55;;;12.90;96.50;;;;;;5058911;28;20040;-37
2023/01/02 12:12:19;;;;;;;3.08;1.80;;;12.90;99.90;;;;;;5057430;28;20107;-37
2023/01/02 12:15:01;;;;;;;2.17;1.70;;;12.90;99.90;;;;;;5059127;28;20075;-38
2023/01/02 12:17:39;;;;;;;2.83;1.42;;;12.90;99.90;;;;;;5066547;28;20028;-36
2023/01/02 12:20:28;;;;;;;2.17;1.50;;;12.90;99.90;;;;;;5057334;28;20040;-35
2023/01/02 12:23:27;;;;;;;2.55;1.50;;;12.90;98.10;;;;;;5039487;28;20024;-37
2023/01/02 12:25:59;;;;;;;1.80;1.50;;;12.90;95.80;;;;;;5050454;28;20074;-36
2023/01/02 12:28:30;;;;;;;3.92;1.88;;;12.90;96.50;;;;;;5062078;28;20031;-33
2023/01/02 12:31:11;;;;;;;2.40;1.88;;;12.90;94.80;;;;;;5057042;28;20036;-36
2023/01/02 12:34:06;;;;;;;4.47;2.00;;;12.80;98.20;;;;;;5060098;28;20040;-36
2023/01/02 12:36:59;;;;;;;3.45;2.13;;;12.80;99.90;;;;;;5034104;28;20040;-29
2023/01/02 12:39:36;;;;;;;4.28;2.38;;;12.80;96.10;;;;;;5056324;28;20513;-31
2023/01/02 12:42:09;;;;;;;3.78;1.40;;;13.10;86.40;;;;;;5060836;28;20025;-35
2023/01/02 12:44:47;;;;;;;2.83;1.40;;;13.20;87.50;;;;;;5060080;28;20020;-37
2023/01/02 12:47:15;;;;;;;4.78;1.10;;;13.10;92.30;;;;;;5055405;28;20028;-33
2023/01/02 12:49:50;;;;;;;;;;;13.10;89.80;;;;;;5056474;28;20071;-35
2023/01/02 12:52:24;;;;;;;3.55;1.08;;;13.20;82.40;;;;;;5061733;28;20392;-32
2023/01/02 12:55:21;;;;;;;3.33;1.30;;;13.10;86.80;;;;;;5068108;28;20090;-35
2023/01/02 12:58:11;;;;;;;3.83;1.80;;;13.00;90.20;;;;;;5061662;28;20460;-34
2023/01/02 13:01:14;;;;;;;2.22;1.27;;;13.10;89.00;;;;;;5059359;28;20511;-35
2023/01/02 13:04:03;;;;;;;4.70;1.20;;;12.90;91.80;;;;;;5055771;28;20509;-33
2023/01/02 13:07:01;;;;;;;4.07;1.67;;;12.80;94.20;;;;;;5047648;28;20048;-37
2023/01/02 13:09:39;;;;;;;1.55;1.15;;;12.70;93.40;;;;;;5054510;28;20025;-36
2023/01/02 13:12:29;;;;;;;3.22;1.25;;;12.60;96.20;;;;;;5055430;28;20130;-34
2023/01/02 13:15:01;;;;;;;4.78;1.48;;;12.70;93.60;;;;;;5052246;28;20044;-32
2023/01/02 13:17:39;;;;;;;2.88;1.30;;;12.60;94.80;;;;;;5057062;28;20043;-31
2023/01/02 13:20:14;;;;;;;2.20;1.30;;;12.50;95.50;;;;;;5055626;28;20715;-36
2023/01/02 13:23:02;;;;;;;3.55;1.00;;;12.50;93.30;;;;;;5052937;28;20721;-37
2023/01/02 13:25:30;;;;;;;1.55;1.35;;;12.40;94.50;;;;;;5048975;28;20492;-34